createdAt,value
2022-10-11T00:01:07.935Z,99271.50
2022-10-11T00:03:47.903Z,99277.81
2022-10-11T00:06:15.390Z,99278.59
2022-10-11T00:08:56.743Z,99277.25
2022-10-11T00:11:36.052Z,99274.75
2022-10-11T00:14:15.884Z,99279.09
2022-10-11T00:16:56.209Z,99279.81
2022-10-11T00:19:35.697Z,99276.91
2022-10-11T00:22:16.321Z,99283.53
2022-10-11T00:24:55.334Z,99276.22
2022-10-11T00:27:22.715Z,99267.59
2022-10-11T00:30:02.143Z,99274.66
2022-10-11T00:32:41.870Z,99279.81
2022-10-11T00:35:18.688Z,99275.84
2022-10-11T00:37:58.417Z,99270.78
2022-10-11T00:40:38.388Z,99279.75
2022-10-11T00:43:23.329Z,99282.88
2022-10-11T00:46:17.272Z,99277.22
2022-10-11T00:49:31.542Z,99280.06
2022-10-11T00:52:42.681Z,99286.63
2022-10-11T00:55:25.438Z,99280.16
2022-10-11T00:58:05.508Z,99283.81
2022-10-11T01:00:45.086Z,99284.22
2022-10-11T01:03:31.784Z,99278.06
2022-10-11T01:05:59.086Z,99284.97
2022-10-11T01:08:52.119Z,99285.75
2022-10-11T01:11:31.574Z,99284.72
2022-10-11T01:14:27.470Z,99290.78
2022-10-11T01:17:39.254Z,99290.41
2022-10-11T01:20:43.538Z,99293.88
2022-10-11T01:23:44.519Z,99289.31
2022-10-11T01:27:05.479Z,99287.84
2022-10-11T01:29:55.282Z,99280.28
2022-10-11T01:32:53.997Z,99288.53
2022-10-11T01:35:56.090Z,99291.94
2022-10-11T01:38:44.621Z,99296.56
2022-10-11T01:41:35.059Z,99295.97
2022-10-11T01:44:14.620Z,99297.13
2022-10-11T01:46:54.245Z,99285.50
2022-10-11T01:49:33.667Z,99290.22
2022-10-11T01:52:13.828Z,99301.19
2022-10-11T01:55:20.503Z,99294.38
2022-10-11T01:58:25.046Z,99292.63
2022-10-11T02:01:32.199Z,99296.59
2022-10-11T02:04:35.189Z,99284.25
2022-10-11T02:07:33.013Z,99288.84
2022-10-11T02:10:22.977Z,99290.97
2022-10-11T02:13:19.888Z,99298.44
2022-10-11T02:16:04.104Z,99299.00
2022-10-11T02:18:50.389Z,99299.16
2022-10-11T02:21:33.781Z,99300.22
2022-10-11T02:24:27.226Z,99298.44
2022-10-11T02:27:09.884Z,99293.22
2022-10-11T02:29:51.543Z,99296.28
2022-10-11T02:32:32.162Z,99302.50
2022-10-11T02:35:12.579Z,99301.38
2022-10-11T02:38:06.111Z,99296.91
2022-10-11T02:41:12.928Z,99300.22
2022-10-11T02:44:00.500Z,99300.22
2022-10-11T02:46:43.402Z,99307.13
2022-10-11T02:49:13.057Z,99306.53
2022-10-11T02:51:40.111Z,99305.66
2022-10-11T02:54:07.321Z,99310.22
2022-10-11T02:56:46.737Z,99313.28
2022-10-11T02:59:26.317Z,99316.16
2022-10-11T03:02:06.330Z,99309.78
2022-10-11T03:04:49.826Z,99318.09
2022-10-11T03:07:29.010Z,99312.31
2022-10-11T03:10:09.569Z,99314.91
2022-10-11T03:12:48.641Z,99321.00
2022-10-11T03:15:28.449Z,99328.78
2022-10-11T03:18:08.024Z,99332.19
2022-10-11T03:20:46.207Z,99325.25
2022-10-11T03:23:24.416Z,99334.19
2022-10-11T03:26:09.305Z,99329.31
2022-10-11T03:28:48.904Z,99330.25
2022-10-11T03:31:28.612Z,99329.91
2022-10-11T03:34:06.865Z,99339.44
2022-10-11T03:36:46.910Z,99337.69
2022-10-11T03:39:26.480Z,99342.25
2022-10-11T03:42:06.290Z,99340.34
2022-10-11T03:44:49.008Z,99338.22
2022-10-11T03:47:27.559Z,99335.41
2022-10-11T03:50:09.681Z,99347.84
2022-10-11T03:52:48.968Z,99339.44
2022-10-11T03:55:28.695Z,99337.88
2022-10-11T03:58:09.178Z,99343.56
2022-10-11T04:00:52.532Z,99346.53
2022-10-11T04:03:31.724Z,99348.88
2022-10-11T04:06:10.907Z,99343.72
2022-10-11T04:08:49.158Z,99344.06
2022-10-11T04:11:28.937Z,99350.09
2022-10-11T04:14:08.780Z,99352.34
2022-10-11T04:16:48.901Z,99345.84
2022-10-11T04:19:28.914Z,99345.69
2022-10-11T04:22:11.095Z,99352.06
2022-10-11T04:25:15.903Z,99359.66
2022-10-11T04:27:55.624Z,99354.59
2022-10-11T04:30:35.359Z,99355.63
2022-10-11T04:33:15.089Z,99349.97
2022-10-11T04:35:55.316Z,99354.66
2022-10-11T04:38:34.991Z,99357.91
2022-10-11T04:41:16.404Z,99363.78
2022-10-11T04:43:56.135Z,99366.28
2022-10-11T04:46:41.332Z,99361.66
2022-10-11T04:49:20.533Z,99371.72
2022-10-11T04:52:00.163Z,99372.31
2022-10-11T04:54:38.445Z,99376.25
2022-10-11T04:57:18.175Z,99374.91
2022-10-11T04:59:56.462Z,99372.06
2022-10-11T05:02:36.206Z,99381.50
2022-10-11T05:05:17.477Z,99379.38
2022-10-11T05:07:56.063Z,99380.16
2022-10-11T05:10:35.595Z,99379.19
2022-10-11T05:13:13.824Z,99382.00
2022-10-11T05:15:52.670Z,99388.09
2022-10-11T05:18:32.046Z,99384.53
2022-10-11T05:21:21.069Z,99384.81
2022-10-11T05:23:59.506Z,99378.63
2022-10-11T05:26:37.594Z,99390.25
2022-10-11T05:29:17.459Z,99399.81
2022-10-11T05:31:57.604Z,99396.78
2022-10-11T05:34:37.082Z,99398.03
2022-10-11T05:37:15.390Z,99407.88
2022-10-11T05:39:55.096Z,99410.41
2022-10-11T05:42:34.904Z,99411.34
2022-10-11T05:45:13.157Z,99408.56
2022-10-11T05:47:52.923Z,99408.34
2022-10-11T05:50:33.375Z,99404.88
2022-10-11T05:53:12.575Z,99409.94
2022-10-11T05:55:52.362Z,99417.50
2022-10-11T05:58:32.126Z,99424.13
2022-10-11T06:01:23.679Z,99422.22
2022-10-11T06:04:04.755Z,99425.00
2022-10-11T06:06:48.898Z,99431.31
2022-10-11T06:09:29.346Z,99432.94
2022-10-11T06:12:09.209Z,99434.59
2022-10-11T06:15:11.916Z,99439.25
2022-10-11T06:18:07.467Z,99439.13
2022-10-11T06:21:04.258Z,99435.53
2022-10-11T06:24:01.289Z,99447.97
2022-10-11T06:26:40.055Z,99445.47
2022-10-11T06:29:42.426Z,99444.19
2022-10-11T06:32:39.216Z,99439.22
2022-10-11T06:35:35.013Z,99439.16
2022-10-11T06:38:28.592Z,99445.53
2022-10-11T06:41:28.303Z,99445.53
2022-10-11T06:44:29.536Z,99455.41
2022-10-11T06:47:25.642Z,99448.91
2022-10-11T06:50:40.773Z,99458.53
2022-10-11T06:53:33.744Z,99453.56
2022-10-11T06:56:29.986Z,99457.66
2022-10-11T06:59:27.312Z,99462.06
2022-10-11T07:02:29.943Z,99468.00
2022-10-11T07:05:27.766Z,99470.25
2022-10-11T07:08:24.269Z,99476.34
2022-10-11T07:11:30.413Z,99483.91
2022-10-11T07:14:26.153Z,99487.75
2022-10-11T07:17:28.381Z,99491.22
2022-10-11T07:20:27.223Z,99491.41
2022-10-11T07:23:38.657Z,99496.84
2022-10-11T07:26:39.342Z,99493.06
2022-10-11T07:29:38.519Z,99490.47
2022-10-11T07:32:35.323Z,99496.78
2022-10-11T07:35:27.514Z,99498.03
2022-10-11T07:38:23.644Z,99497.88
2022-10-11T07:41:17.085Z,99502.06
2022-10-11T07:44:10.204Z,99503.50
2022-10-11T07:47:10.926Z,99504.44
2022-10-11T07:50:05.447Z,99499.22
2022-10-11T07:52:41.818Z,99498.06
2022-10-11T07:55:18.657Z,99506.28
2022-10-11T07:58:12.944Z,99503.56
2022-10-11T08:01:14.708Z,99502.97
2022-10-11T08:04:07.175Z,99505.19
2022-10-11T08:07:04.899Z,99497.38
2022-10-11T08:09:58.921Z,99511.84
2022-10-11T08:12:48.478Z,99502.97
2022-10-11T08:15:34.080Z,99511.09
2022-10-11T08:18:19.737Z,99508.44
2022-10-11T08:21:11.667Z,99510.56
2022-10-11T08:23:57.419Z,99506.41
2022-10-11T08:26:42.977Z,99511.97
2022-10-11T08:29:28.575Z,99515.50
2022-10-11T08:32:14.306Z,99516.38
2022-10-11T08:34:59.988Z,99519.06
2022-10-11T08:37:45.694Z,99511.19
2022-10-11T08:40:35.153Z,99514.72
2022-10-11T08:43:35.949Z,99511.66
2022-10-11T08:46:29.092Z,99520.19
2022-10-11T08:49:16.973Z,99518.34
2022-10-11T08:51:51.082Z,99518.00
2022-10-11T08:54:35.210Z,99520.84
2022-10-11T08:57:06.115Z,99517.25
2022-10-11T09:00:04.405Z,99521.72
2022-10-11T09:03:14.842Z,99514.28
2022-10-11T09:06:24.312Z,99517.34
2022-10-11T09:09:42.122Z,99520.22
2022-10-11T09:12:41.064Z,99515.31
2022-10-11T09:15:15.401Z,99517.47
2022-10-11T09:18:09.712Z,99514.56
2022-10-11T09:21:30.387Z,99524.59
2022-10-11T09:24:25.023Z,99522.66
2022-10-11T09:26:59.519Z,99522.03
2022-10-11T09:29:47.835Z,99527.94
2022-10-11T09:32:20.841Z,99520.53
2022-10-11T09:35:16.860Z,99526.63
2022-10-11T09:37:56.277Z,99532.19
2022-10-11T09:40:59.257Z,99525.66
2022-10-11T09:43:26.400Z,99528.59
2022-10-11T09:45:56.116Z,99521.09
2022-10-11T09:48:28.935Z,99523.97
2022-10-11T09:51:06.711Z,99533.31
2022-10-11T09:54:12.720Z,99528.53
2022-10-11T09:56:45.422Z,99531.91
2022-10-11T09:59:35.128Z,99528.94
2022-10-11T10:02:14.306Z,99535.91
2022-10-11T10:04:53.407Z,99530.75
2022-10-11T10:07:21.718Z,99535.03
2022-10-11T10:09:49.729Z,99528.81
2022-10-11T10:12:24.874Z,99534.56
2022-10-11T10:15:19.664Z,99530.66
2022-10-11T10:17:53.562Z,99532.72
2022-10-11T10:20:31.780Z,99535.19
2022-10-11T10:23:08.240Z,99527.03
2022-10-11T10:25:43.034Z,99533.28
2022-10-11T10:28:37.122Z,99531.53
2022-10-11T10:31:04.229Z,99533.38
2022-10-11T10:33:35.542Z,99535.63
2022-10-11T10:36:14.186Z,99535.16
2022-10-11T10:38:52.302Z,99539.41
2022-10-11T10:41:19.741Z,99536.06
2022-10-11T10:43:55.996Z,99541.84
2022-10-11T10:46:46.125Z,99535.03
2022-10-11T10:50:04.083Z,99533.34
2022-10-11T10:53:01.048Z,99537.59
2022-10-11T10:55:47.479Z,99535.19
2022-10-11T10:58:42.754Z,99537.88
2022-10-11T11:02:35.497Z,99532.75
2022-10-11T11:05:54.760Z,99536.09
2022-10-11T11:09:24.668Z,99538.13
2022-10-11T11:12:48.654Z,99530.34
2022-10-11T11:15:33.184Z,99524.47
2022-10-11T11:18:29.631Z,99527.00
2022-10-11T11:21:19.705Z,99527.97
2022-10-11T11:24:42.926Z,99525.97
2022-10-11T11:28:06.365Z,99521.75
2022-10-11T11:31:29.602Z,99521.38
2022-10-11T11:34:53.229Z,99521.50
2022-10-11T11:37:55.564Z,99518.50
2022-10-11T11:41:23.214Z,99511.25
2022-10-11T11:44:46.958Z,99513.78
2022-10-11T11:47:42.029Z,99516.28
2022-10-11T11:50:24.963Z,99504.31
2022-10-11T11:53:07.955Z,99500.75
2022-10-11T11:55:44.004Z,99500.41
2022-10-11T11:59:08.664Z,99503.31
2022-10-11T12:01:47.117Z,99501.78
2022-10-11T12:05:05.959Z,99508.28
2022-10-11T12:08:01.343Z,99502.28
2022-10-11T12:10:35.671Z,99492.94
2022-10-11T12:13:18.363Z,99489.09
2022-10-11T12:16:09.772Z,99497.47
2022-10-11T12:18:59.222Z,99494.03
2022-10-11T12:21:36.091Z,99485.16
2022-10-11T12:24:07.068Z,99481.03
2022-10-11T12:26:49.951Z,99485.38
2022-10-11T12:29:18.155Z,99481.50
2022-10-11T12:32:06.757Z,99487.41
2022-10-11T12:37:17.897Z,99491.59
2022-10-11T12:39:49.622Z,99486.63
2022-10-11T12:42:24.626Z,99480.00
2022-10-11T12:45:12.308Z,99492.47
2022-10-11T12:47:54.804Z,99483.94
2022-10-11T12:50:37.487Z,99482.28
2022-10-11T12:53:39.693Z,99475.59
2022-10-11T12:56:26.296Z,99481.88
2022-10-11T12:59:04.826Z,99473.81
2022-10-11T13:01:37.529Z,99478.31
2022-10-11T13:04:11.482Z,99470.75
2022-10-11T13:07:07.554Z,99472.28
2022-10-11T13:09:41.583Z,99471.84
2022-10-11T13:12:18.733Z,99462.75
2022-10-11T13:14:56.743Z,99461.84
2022-10-11T13:17:38.244Z,99459.34
2022-10-11T13:20:15.600Z,99458.19
2022-10-11T13:22:47.237Z,99460.88
2022-10-11T13:25:24.466Z,99468.75
2022-10-11T13:28:09.777Z,99465.94
2022-10-11T13:30:42.816Z,99455.41
2022-10-11T13:33:49.959Z,99461.38
2022-10-11T13:36:18.464Z,99465.09
2022-10-11T13:39:00.632Z,99461.81
2022-10-11T13:41:30.438Z,99460.53
2022-10-11T13:43:59.745Z,99461.38
2022-10-11T13:46:29.760Z,99457.41
2022-10-11T13:49:02.645Z,99464.63
2022-10-11T13:51:37.337Z,99462.56
2022-10-11T13:54:13.531Z,99451.00
2022-10-11T13:56:49.901Z,99456.59
2022-10-11T13:59:25.560Z,99463.88
2022-10-11T14:02:00.155Z,99455.44
2022-10-11T14:05:23.969Z,99454.00
2022-10-11T14:07:51.938Z,99463.81
2022-10-11T14:11:15.502Z,99451.97
2022-10-11T14:13:49.608Z,99460.63
2022-10-11T14:17:14.564Z,99448.97
2022-10-11T14:19:43.860Z,99452.03
2022-10-11T14:22:17.775Z,99454.50
2022-10-11T14:24:48.389Z,99454.16
2022-10-11T14:27:23.624Z,99462.19
2022-10-11T14:30:19.923Z,99459.81
2022-10-11T14:32:42.398Z,99465.63
2022-10-11T14:35:23.978Z,99463.63
2022-10-11T14:41:52.368Z,99472.63
2022-10-11T14:45:15.938Z,99466.25
2022-10-11T14:47:43.719Z,99472.34
2022-10-11T14:50:27.790Z,99461.41
2022-10-11T14:52:55.582Z,99457.22
2022-10-11T14:56:21.731Z,99461.06
2022-10-11T14:58:49.671Z,99460.06
2022-10-11T15:02:13.182Z,99464.13
2022-10-11T15:05:02.115Z,99453.84
2022-10-11T15:07:29.201Z,99463.81
2022-10-11T15:09:56.213Z,99458.94
2022-10-11T15:12:23.433Z,99461.94
2022-10-11T15:14:50.699Z,99459.94
2022-10-11T15:17:17.967Z,99456.72
2022-10-11T15:19:45.212Z,99454.47
2022-10-11T15:22:12.232Z,99455.94
2022-10-11T15:24:39.358Z,99454.69
2022-10-11T15:27:06.389Z,99458.44
2022-10-11T15:29:33.398Z,99447.72
2022-10-11T15:32:00.399Z,99442.75
2022-10-11T15:34:27.478Z,99451.16
2022-10-11T15:36:54.465Z,99440.97
2022-10-11T15:39:32.593Z,99446.41
2022-10-11T15:42:00.125Z,99444.53
2022-10-11T15:44:27.247Z,99442.66
2022-10-11T15:46:54.662Z,99444.47
2022-10-11T15:49:22.001Z,99444.63
2022-10-11T15:51:49.022Z,99439.50
2022-10-11T15:54:16.085Z,99442.22
2022-10-11T15:56:43.234Z,99447.63
2022-10-11T15:59:11.735Z,99445.50
2022-10-11T16:01:39.182Z,99445.28
2022-10-11T16:04:06.754Z,99449.25
2022-10-11T16:06:33.957Z,99447.31
2022-10-11T16:09:01.660Z,99454.59
2022-10-11T16:11:29.176Z,99454.19
2022-10-11T16:13:56.469Z,99458.28
2022-10-11T16:16:23.753Z,99450.41
2022-10-11T16:18:51.299Z,99451.28
2022-10-11T16:21:20.366Z,99446.72
2022-10-11T16:23:47.357Z,99446.44
2022-10-11T16:26:16.252Z,99445.47
2022-10-11T16:28:43.411Z,99450.25
2022-10-11T16:31:15.501Z,99451.34
2022-10-11T16:33:46.144Z,99443.91
2022-10-11T16:36:39.963Z,99451.56
2022-10-11T16:39:16.890Z,99460.31
2022-10-11T16:41:44.924Z,99457.34
2022-10-11T16:44:18.298Z,99458.25
2022-10-11T16:46:48.487Z,99459.78
2022-10-11T16:49:23.070Z,99458.38
2022-10-11T16:51:52.403Z,99457.25
2022-10-11T16:54:20.922Z,99465.03
2022-10-11T16:56:51.133Z,99456.38
2022-10-11T16:59:18.350Z,99455.84
2022-10-11T17:01:46.171Z,99457.28
2022-10-11T17:04:13.348Z,99466.44
2022-10-11T17:06:43.637Z,99469.06
2022-10-11T17:09:11.408Z,99471.56
2022-10-11T17:11:38.831Z,99464.22
2022-10-11T17:14:07.606Z,99469.00
2022-10-11T17:16:35.468Z,99459.19
2022-10-11T17:19:03.203Z,99462.88
2022-10-11T17:21:30.460Z,99465.03
2022-10-11T17:23:57.679Z,99464.84
2022-10-11T17:26:26.964Z,99463.47
2022-10-11T17:28:58.853Z,99468.75
2022-10-11T17:31:27.912Z,99462.75
2022-10-11T17:33:58.349Z,99464.47
2022-10-11T17:36:34.501Z,99461.13
2022-10-11T17:39:16.097Z,99456.44
2022-10-11T17:41:44.644Z,99463.50
2022-10-11T17:44:13.058Z,99460.56
2022-10-11T17:46:41.021Z,99460.88
2022-10-11T17:49:09.027Z,99456.59
2022-10-11T17:51:37.724Z,99458.56
2022-10-11T17:54:06.066Z,99463.34
2022-10-11T17:56:37.622Z,99460.84
2022-10-11T17:59:06.231Z,99463.00
2022-10-11T18:01:33.436Z,99472.53
2022-10-11T18:04:04.153Z,99476.06
2022-10-11T18:06:34.580Z,99479.91
2022-10-11T18:09:04.135Z,99478.00
2022-10-11T18:11:32.150Z,99482.66
2022-10-11T18:13:59.824Z,99483.03
2022-10-11T18:16:30.084Z,99479.06
2022-10-11T18:18:58.387Z,99478.00
2022-10-11T18:21:31.214Z,99471.16
2022-10-11T18:24:03.460Z,99477.47
2022-10-11T18:26:31.309Z,99472.69
2022-10-11T18:28:59.683Z,99472.69
2022-10-11T18:31:31.028Z,99470.22
2022-10-11T18:33:58.089Z,99464.75
2022-10-11T18:36:29.884Z,99467.69
2022-10-11T18:39:01.182Z,99466.28
2022-10-11T18:41:31.944Z,99465.34
2022-10-11T18:44:04.331Z,99465.16
2022-10-11T18:46:32.053Z,99466.41
2022-10-11T18:49:02.172Z,99466.28
2022-10-11T18:51:33.558Z,99465.16
2022-10-11T18:54:01.718Z,99471.56
2022-10-11T18:56:31.766Z,99467.97
2022-10-11T18:58:59.655Z,99466.53
2022-10-11T19:01:36.311Z,99460.69
2022-10-11T19:04:05.923Z,99460.69
2022-10-11T19:06:40.426Z,99464.97
2022-10-11T19:09:18.825Z,99465.28
2022-10-11T19:11:51.448Z,99462.66
2022-10-11T19:14:22.785Z,99459.53
2022-10-11T19:16:51.986Z,99461.88
2022-10-11T19:19:22.490Z,99456.72
2022-10-11T19:21:50.406Z,99462.66
2022-10-11T19:24:20.356Z,99463.53
2022-10-11T19:26:47.947Z,99460.22
2022-10-11T19:29:19.577Z,99460.81
2022-10-11T19:32:00.565Z,99458.56
2022-10-11T19:34:28.751Z,99463.13
2022-10-11T19:36:57.036Z,99467.91
2022-10-11T19:39:24.736Z,99462.84
2022-10-11T19:41:52.312Z,99466.94
2022-10-11T19:44:19.509Z,99466.28
2022-10-11T19:46:52.112Z,99470.16
2022-10-11T19:49:25.027Z,99468.03
2022-10-11T19:51:53.748Z,99473.31
2022-10-11T19:54:21.145Z,99472.94
2022-10-11T19:56:48.700Z,99465.75
2022-10-11T19:59:16.084Z,99465.66
2022-10-11T20:01:46.633Z,99464.19
2022-10-11T20:04:39.547Z,99467.06
2022-10-11T20:07:02.562Z,99471.28
2022-10-11T20:09:30.835Z,99471.41
2022-10-11T20:11:59.071Z,99478.41
2022-10-11T20:14:26.707Z,99473.84
2022-10-11T20:16:53.806Z,99478.81
2022-10-11T20:19:25.073Z,99474.31
2022-10-11T20:21:55.162Z,99484.84
2022-10-11T20:24:22.222Z,99476.09
2022-10-11T20:26:49.258Z,99478.41
2022-10-11T20:29:16.769Z,99479.28
2022-10-11T20:31:43.857Z,99478.03
2022-10-11T20:34:11.468Z,99482.31
2022-10-11T20:36:38.543Z,99477.25
2022-10-11T20:39:06.645Z,99485.78
2022-10-11T20:41:39.932Z,99483.28
2022-10-11T20:44:08.947Z,99485.19
2022-10-11T20:46:41.318Z,99484.03
2022-10-11T20:49:11.440Z,99477.44
2022-10-11T20:51:41.751Z,99476.84
2022-10-11T20:54:09.646Z,99484.84
2022-10-11T20:56:38.095Z,99483.00
2022-10-11T20:59:06.172Z,99479.97
2022-10-11T21:01:40.633Z,99481.50
2022-10-11T21:04:14.509Z,99475.78
2022-10-11T21:06:41.849Z,99481.91
2022-10-11T21:09:15.508Z,99483.88
2022-10-11T21:11:48.977Z,99471.00
2022-10-11T21:14:16.349Z,99484.44
2022-10-11T21:16:43.835Z,99475.00
2022-10-11T21:19:14.886Z,99477.16
2022-10-11T21:21:43.523Z,99473.16
2022-10-11T21:24:10.590Z,99470.44
2022-10-11T21:26:37.603Z,99471.88
2022-10-11T21:29:04.661Z,99471.00
2022-10-11T21:31:34.307Z,99467.53
2022-10-11T21:34:04.912Z,99465.56
2022-10-11T21:36:32.204Z,99467.13
2022-10-11T21:38:59.406Z,99463.03
2022-10-11T21:41:29.993Z,99459.53
2022-10-11T21:43:58.187Z,99458.47
2022-10-11T21:47:01.141Z,99459.53
2022-10-11T21:49:18.856Z,99463.63
2022-10-11T21:51:46.025Z,99463.81
2022-10-11T21:54:13.444Z,99467.81
2022-10-11T21:56:41.276Z,99456.22
2022-10-11T21:59:12.077Z,99457.78
2022-10-11T22:01:41.600Z,99453.41
2022-10-11T22:04:09.806Z,99457.78
2022-10-11T22:06:38.790Z,99452.75
2022-10-11T22:09:08.472Z,99453.69
2022-10-11T22:11:35.947Z,99465.88
2022-10-11T22:14:03.568Z,99461.50
2022-10-11T22:16:34.273Z,99462.66
2022-10-11T22:19:01.713Z,99462.38
2022-10-11T22:21:29.006Z,99453.22
2022-10-11T22:23:56.300Z,99454.31
2022-10-11T22:26:27.578Z,99455.66
2022-10-11T22:28:54.961Z,99450.22
2022-10-11T22:31:23.353Z,99449.06
2022-10-11T22:33:56.224Z,99446.50
2022-10-11T22:36:26.145Z,99451.28
2022-10-11T22:38:54.338Z,99439.16
2022-10-11T22:41:22.575Z,99436.78
2022-10-11T22:43:50.025Z,99434.84
2022-10-11T22:46:17.577Z,99430.97
2022-10-11T22:48:44.685Z,99431.53
2022-10-11T22:51:12.135Z,99434.44
2022-10-11T22:53:39.303Z,99441.63
2022-10-11T22:56:08.723Z,99431.56
2022-10-11T22:58:36.091Z,99434.66
2022-10-11T23:01:11.954Z,99435.25
2022-10-11T23:03:39.469Z,99427.38
2022-10-11T23:06:06.741Z,99431.06
2022-10-11T23:08:33.794Z,99426.28
2022-10-11T23:11:06.155Z,99437.56
2022-10-11T23:13:34.544Z,99432.19
2022-10-11T23:16:10.533Z,99434.63
2022-10-11T23:18:38.551Z,99436.47
2022-10-11T23:21:07.507Z,99434.94
2022-10-11T23:23:35.426Z,99439.50
2022-10-11T23:26:08.828Z,99439.72
2022-10-11T23:28:36.794Z,99431.34
2022-10-11T23:31:13.947Z,99433.88
2022-10-11T23:33:41.053Z,99442.16
2022-10-11T23:36:21.026Z,99439.72
2022-10-11T23:38:54.134Z,99431.91
2022-10-11T23:41:27.773Z,99425.41
2022-10-11T23:43:55.061Z,99424.31
2022-10-11T23:46:27.288Z,99426.28
2022-10-11T23:48:54.925Z,99423.09
2022-10-11T23:51:22.457Z,99416.38
2022-10-11T23:53:49.786Z,99422.22
2022-10-11T23:56:17.084Z,99419.13
2022-10-11T23:58:44.211Z,99427.56
